createdAt,value
2024-02-19T00:09:45.311Z,8.5
2024-02-19T00:38:57.055Z,8.4
2024-02-19T01:08:19.363Z,8.4
2024-02-19T01:37:40.165Z,8.5
2024-02-19T02:06:54.654Z,8.5
2024-02-19T02:36:03.136Z,8.5
2024-02-19T03:05:16.544Z,8.5
2024-02-19T03:34:32.282Z,8.5
2024-02-19T04:03:44.128Z,8.4
2024-02-19T04:32:56.355Z,8.4
2024-02-19T05:01:59.258Z,8.6
2024-02-19T05:31:08.899Z,8.7
2024-02-19T06:00:20.656Z,8.7
2024-02-19T06:29:37.424Z,8.9
2024-02-19T06:58:54.361Z,8.9
2024-02-19T07:28:06.892Z,8.9
2024-02-19T07:57:20.615Z,8.9
2024-02-19T08:26:30.006Z,9
2024-02-19T08:55:46.154Z,9.4
2024-02-19T09:25:04.153Z,9.7
2024-02-19T09:54:16.337Z,9.8
2024-02-19T10:23:31.892Z,9.8
2024-02-19T10:52:51.874Z,9.9
2024-02-19T11:22:12.467Z,10.1
2024-02-19T11:51:23.426Z,10.3
2024-02-19T12:20:37.806Z,10.6
2024-02-19T12:50:04.157Z,10.8
2024-02-19T13:19:18.499Z,11.6
2024-02-19T13:48:21.670Z,11.9
2024-02-19T14:17:29.259Z,11.8
2024-02-19T14:47:01.777Z,11.5
2024-02-19T15:15:34.911Z,11.4
2024-02-19T15:44:51.110Z,11.4
2024-02-19T16:14:08.595Z,11.1
2024-02-19T16:43:22.676Z,10.6
2024-02-19T17:12:34.897Z,10.1
2024-02-19T17:41:40.176Z,10
2024-02-19T18:10:59.698Z,9.9
2024-02-19T18:40:13.138Z,9.8
2024-02-19T19:09:18.643Z,9.6
2024-02-19T19:38:25.517Z,9.5
2024-02-19T20:07:38.125Z,9.3
2024-02-19T20:36:47.836Z,9.1
2024-02-19T21:05:50.731Z,9
2024-02-19T21:34:50.201Z,9
2024-02-19T22:03:44.388Z,8.9
2024-02-19T22:32:44.680Z,8.9
2024-02-19T23:01:53.606Z,8.8
2024-02-19T23:30:52.482Z,8.7
